Time;durP1;ratioP1;P1;durP2;ratioP2;P2;SDS_P1;SDS_P2;PMS_P1;PMS_P2;Temp;Humidity;BMP_temperature;BMP_pressure;BME280_temperature;BME280_humidity;BME280_pressure;Samples;Min_cycle;Max_cycle;Signal;HPM_P1;HPM_P2
2021/01/16 00:00:34;;;;;;;24.40;11.43;;;6.20;99.90;;;;;;6154365;23;20025;-89
2021/01/16 00:03:01;;;;;;;17.80;10.00;;;6.20;99.90;;;;;;6154396;23;20021;-89
2021/01/16 00:05:29;;;;;;;23.23;10.20;;;6.20;99.90;;;;;;6154588;23;20033;-89
2021/01/16 00:08:21;;;;;;;17.95;9.05;;;6.20;99.90;;;;;;6152963;23;20032;-89
2021/01/16 00:10:53;;;;;;;19.92;9.60;;;6.20;99.90;;;;;;6153948;23;20345;-89
2021/01/16 00:13:25;;;;;;;16.83;9.60;;;6.20;99.90;;;;;;6154413;23;20389;-89
2021/01/16 00:15:52;;;;;;;21.73;9.80;;;6.20;99.90;;;;;;6154416;23;20459;-89
2021/01/16 00:18:23;;;;;;;17.80;9.02;;;6.20;99.90;;;;;;6154273;23;20097;-89
2021/01/16 00:20:58;;;;;;;18.58;9.90;;;6.30;99.90;;;;;;6154692;23;20033;-89
2021/01/16 00:23:29;;;;;;;22.20;9.43;;;6.20;99.90;;;;;;6154478;23;20306;-89
2021/01/16 00:25:56;;;;;;;15.77;8.70;;;6.20;99.90;;;;;;6154361;23;20013;-89
2021/01/16 00:28:26;;;;;;;22.75;9.15;;;6.20;99.90;;;;;;6154530;23;20044;-89
2021/01/16 00:30:53;;;;;;;20.42;8.15;;;6.20;99.90;;;;;;6154312;23;20024;-89
2021/01/16 00:33:26;;;;;;;18.17;7.55;;;6.30;99.90;;;;;;6154532;23;20017;-89
2021/01/16 00:35:54;;;;;;;15.52;8.40;;;6.30;99.90;;;;;;6154755;23;20441;-88
2021/01/16 00:38:23;;;;;;;15.40;6.93;;;6.30;99.90;;;;;;6155280;23;20029;-89
2021/01/16 00:40:49;;;;;;;14.32;7.05;;;6.30;99.90;;;;;;6156148;23;20014;-89
2021/01/16 00:43:17;;;;;;;14.60;6.03;;;6.30;99.90;;;;;;6156088;23;20065;-89
2021/01/16 00:45:45;;;;;;;15.30;6.10;;;6.30;99.90;;;;;;6155931;23;20414;-89
2021/01/16 00:48:14;;;;;;;13.40;5.80;;;6.40;99.90;;;;;;6156107;23;20045;-89
2021/01/16 00:50:41;;;;;;;;;;;6.40;99.90;;;;;;6156281;23;20445;-88
2021/01/16 00:53:08;;;;;;;13.98;5.53;;;6.40;99.90;;;;;;6156015;23;19992;-89
2021/01/16 00:55:35;;;;;;;15.75;5.70;;;6.40;99.90;;;;;;6156401;23;20017;-89
2021/01/16 00:58:12;;;;;;;17.33;5.90;;;6.40;99.90;;;;;;6156367;23;20021;-89
2021/01/16 01:00:42;;;;;;;11.30;4.15;;;6.50;99.90;;;;;;6155859;23;20014;-89
2021/01/16 01:03:09;;;;;;;16.27;4.78;;;6.50;99.90;;;;;;6155854;23;20338;-88
2021/01/16 01:05:36;;;;;;;10.85;3.92;;;6.50;99.90;;;;;;6155970;23;20024;-89
2021/01/16 01:08:03;;;;;;;15.70;4.00;;;6.50;99.90;;;;;;6155640;23;20021;-89
2021/01/16 01:10:32;;;;;;;11.50;4.28;;;6.50;99.90;;;;;;6156583;23;20017;-89
2021/01/16 01:12:59;;;;;;;13.65;3.83;;;6.50;99.90;;;;;;6156187;23;20013;-89
2021/01/16 01:15:25;;;;;;;14.63;4.15;;;6.60;99.90;;;;;;6155979;23;20021;-89
2021/01/16 01:17:54;;;;;;;15.27;4.65;;;6.60;99.90;;;;;;6156182;23;20092;-89
2021/01/16 01:20:21;;;;;;;10.60;3.80;;;6.50;99.90;;;;;;6156091;23;20092;-89
2021/01/16 01:22:48;;;;;;;11.73;4.18;;;6.60;99.90;;;;;;6156345;23;20025;-89
2021/01/16 01:25:16;;;;;;;11.20;3.80;;;6.60;99.90;;;;;;6156055;23;20020;-89
2021/01/16 01:27:47;;;;;;;7.97;2.85;;;6.60;99.90;;;;;;6157142;23;20024;-89
2021/01/16 01:30:14;;;;;;;10.25;3.10;;;6.60;99.90;;;;;;6157292;23;20017;-89
2021/01/16 01:32:45;;;;;;;9.95;3.38;;;6.70;99.90;;;;;;6155654;23;20024;-89
2021/01/16 01:35:12;;;;;;;12.45;3.95;;;6.70;99.90;;;;;;6155553;23;20446;-89
2021/01/16 01:37:42;;;;;;;16.27;4.57;;;6.70;99.90;;;;;;6155791;23;20028;-89
2021/01/16 01:40:13;;;;;;;14.60;3.33;;;6.70;99.90;;;;;;6156225;23;20014;-89
2021/01/16 01:42:40;;;;;;;12.82;3.50;;;6.80;99.90;;;;;;6155623;23;20025;-89
2021/01/16 01:45:09;;;;;;;11.05;3.15;;;6.80;99.90;;;;;;6155677;23;20020;-88
2021/01/16 01:47:38;;;;;;;9.35;2.90;;;6.80;99.90;;;;;;6155649;23;20088;-89
2021/01/16 01:50:06;;;;;;;;;;;6.80;99.90;;;;;;6156242;23;20025;-89
2021/01/16 01:52:38;;;;;;;12.80;2.85;;;6.90;99.90;;;;;;6155697;23;20315;-89
2021/01/16 01:55:07;;;;;;;9.55;2.75;;;6.90;99.90;;;;;;6155389;23;20097;-89
2021/01/16 01:57:38;;;;;;;10.65;2.97;;;6.90;99.90;;;;;;6131345;23;20017;-89
2021/01/16 02:00:10;;;;;;;15.10;3.10;;;6.90;99.90;;;;;;6130651;23;20026;-89
2021/01/16 02:02:37;;;;;;;13.35;2.50;;;6.90;99.90;;;;;;6130808;23;20314;-89
2021/01/16 02:05:06;;;;;;;14.52;3.00;;;7.00;99.90;;;;;;6131124;23;20018;-89
2021/01/16 02:07:37;;;;;;;13.40;2.63;;;7.00;99.90;;;;;;6131374;23;20037;-89
2021/01/16 02:10:34;;;;;;;13.93;2.60;;;7.00;99.90;;;;;;6131076;23;20088;-89
2021/01/16 02:13:00;;;;;;;12.80;2.63;;;7.10;99.90;;;;;;6112982;23;20072;-89
2021/01/16 02:15:33;;;;;;;13.00;2.10;;;7.10;99.90;;;;;;6131131;23;20036;-89
2021/01/16 02:18:19;;;;;;;11.70;1.98;;;7.10;99.90;;;;;;6130805;23;20017;-89
2021/01/16 02:20:47;;;;;;;12.52;2.00;;;7.10;99.90;;;;;;6130598;23;20445;-89
2021/01/16 02:23:19;;;;;;;13.68;2.10;;;7.10;99.90;;;;;;6130773;23;20018;-89
2021/01/16 02:25:53;;;;;;;12.52;1.63;;;7.20;99.90;;;;;;6130953;23;20017;-90
2021/01/16 02:28:26;;;;;;;9.20;1.90;;;7.20;99.90;;;;;;6130993;23;20025;-89
2021/01/16 02:30:54;;;;;;;7.93;1.75;;;7.20;99.90;;;;;;6130690;23;20306;-89
2021/01/16 02:33:25;;;;;;;8.18;1.38;;;7.30;99.90;;;;;;6130809;23;20022;-89
2021/01/16 02:36:52;;;;;;;8.95;1.48;;;7.30;99.90;;;;;;6130914;23;20017;-90
2021/01/16 02:39:28;;;;;;;13.33;1.50;;;7.30;99.90;;;;;;6014252;23;20030;-89
2021/01/16 02:42:36;;;;;;;7.95;1.10;;;7.30;99.90;;;;;;6014296;23;20115;-90
2021/01/16 02:45:09;;;;;;;8.05;1.63;;;7.40;99.90;;;;;;6030199;23;20451;-90
2021/01/16 02:48:08;;;;;;;8.07;1.92;;;7.40;99.90;;;;;;6014360;23;20015;-90
2021/01/16 02:50:44;;;;;;;8.38;1.30;;;7.40;99.90;;;;;;6014296;23;20383;-89
2021/01/16 02:53:12;;;;;;;17.13;1.85;;;7.50;99.90;;;;;;6014476;23;20030;-90
2021/01/16 02:55:40;;;;;;;11.07;1.55;;;7.50;99.90;;;;;;6024814;23;20019;-89
2021/01/16 02:58:07;;;;;;;14.63;2.05;;;7.50;99.90;;;;;;6066352;23;20019;-90
2021/01/16 03:00:34;;;;;;;11.02;1.67;;;7.50;99.90;;;;;;6042002;23;20015;-89
2021/01/16 03:03:01;;;;;;;11.63;1.75;;;7.50;99.90;;;;;;6042890;23;20470;-89
2021/01/16 03:05:28;;;;;;;7.50;1.50;;;7.50;99.90;;;;;;6042818;23;20438;-89
2021/01/16 03:07:56;;;;;;;8.40;1.25;;;7.60;99.90;;;;;;6042738;23;20027;-89
2021/01/16 03:10:26;;;;;;;8.55;1.73;;;7.60;99.90;;;;;;6043188;23;20022;-90
2021/01/16 03:12:53;;;;;;;9.03;1.67;;;7.60;99.90;;;;;;6042316;23;20105;-90
2021/01/16 03:15:21;;;;;;;12.73;1.77;;;7.60;99.90;;;;;;6139487;23;20024;-90
2021/01/16 03:17:49;;;;;;;18.95;1.35;;;7.60;99.90;;;;;;6154807;23;20021;-89
2021/01/16 03:20:21;;;;;;;6.32;1.52;;;7.70;99.90;;;;;;6154948;23;20438;-90
2021/01/16 03:22:49;;;;;;;10.25;1.98;;;7.70;99.90;;;;;;6154750;23;20025;-90
2021/01/16 03:25:18;;;;;;;7.83;1.10;;;7.70;99.90;;;;;;6154891;23;20036;-90
2021/01/16 03:27:46;;;;;;;10.93;1.55;;;7.70;99.90;;;;;;6154838;23;20375;-89
2021/01/16 03:30:13;;;;;;;8.88;1.52;;;7.80;99.90;;;;;;6154920;23;20020;-90
2021/01/16 03:32:44;;;;;;;13.77;1.83;;;7.80;99.90;;;;;;6154728;23;20024;-89
2021/01/16 03:35:13;;;;;;;7.57;1.20;;;7.80;99.90;;;;;;6154659;23;20014;-90
2021/01/16 03:37:39;;;;;;;8.35;1.40;;;7.90;99.90;;;;;;6154983;23;20017;-89
2021/01/16 03:40:07;;;;;;;11.50;1.45;;;7.90;99.90;;;;;;6154593;23;20040;-89
2021/01/16 03:42:38;;;;;;;11.70;2.08;;;7.90;99.90;;;;;;6154256;23;20029;-90
2021/01/16 03:45:09;;;;;;;7.55;1.42;;;7.90;99.90;;;;;;6154572;23;20013;-90
2021/01/16 03:47:36;;;;;;;15.32;1.90;;;8.00;99.90;;;;;;6154760;23;20018;-89
2021/01/16 03:50:07;;;;;;;13.43;2.00;;;8.00;99.90;;;;;;6154756;23;20488;-90
2021/01/16 03:52:42;;;;;;;13.38;1.60;;;8.00;99.90;;;;;;6154716;23;20022;-90
2021/01/16 03:55:10;;;;;;;12.68;1.30;;;8.10;99.90;;;;;;6154250;23;20018;-89
2021/01/16 03:57:37;;;;;;;10.75;1.63;;;8.10;99.90;;;;;;6154551;23;20021;-90
2021/01/16 04:00:09;;;;;;;14.27;1.90;;;8.10;99.90;;;;;;6154416;23;20068;-89
2021/01/16 04:02:36;;;;;;;19.55;1.83;;;8.10;99.90;;;;;;6154674;23;20400;-89
2021/01/16 04:05:05;;;;;;;14.97;2.10;;;8.10;99.90;;;;;;6154710;23;20084;-89
2021/01/16 04:07:31;;;;;;;8.73;1.08;;;8.20;99.90;;;;;;6155264;23;20282;-89
2021/01/16 04:10:00;;;;;;;9.85;1.48;;;8.20;99.90;;;;;;6154630;23;20020;-89
2021/01/16 04:12:28;;;;;;;;;;;8.20;99.90;;;;;;6156200;23;20062;-89
2021/01/16 04:14:55;;;;;;;14.55;1.50;;;8.20;99.90;;;;;;6156518;23;19923;-90
2021/01/16 04:17:21;;;;;;;11.85;1.67;;;8.20;99.90;;;;;;6156386;23;20021;-89
2021/01/16 04:19:48;;;;;;;12.27;1.95;;;8.30;99.90;;;;;;6156672;23;20386;-89
2021/01/16 04:22:15;;;;;;;13.95;1.85;;;8.30;99.90;;;;;;6156665;23;20025;-90
2021/01/16 04:24:41;;;;;;;12.70;1.63;;;8.30;99.90;;;;;;6156438;23;20449;-88
2021/01/16 04:27:08;;;;;;;12.30;1.65;;;8.30;99.90;;;;;;6156482;23;20024;-90
2021/01/16 04:29:34;;;;;;;17.90;2.10;;;8.30;99.90;;;;;;6156736;23;20024;-90
2021/01/16 04:32:01;;;;;;;11.40;1.50;;;8.40;99.90;;;;;;6156139;23;20028;-90
2021/01/16 04:34:29;;;;;;;13.53;1.63;;;8.40;99.90;;;;;;6157178;23;20019;-90
2021/01/16 04:36:55;;;;;;;12.82;1.48;;;8.40;99.90;;;;;;6156668;23;20602;-90
2021/01/16 04:39:22;;;;;;;13.00;1.70;;;8.50;99.90;;;;;;6155874;23;20037;-89
2021/01/16 04:41:53;;;;;;;10.07;1.63;;;8.50;99.90;;;;;;6156455;23;20663;-89
2021/01/16 04:44:23;;;;;;;17.45;1.77;;;8.50;99.90;;;;;;6156098;23;20022;-89
2021/01/16 04:46:50;;;;;;;15.50;1.98;;;8.50;99.90;;;;;;6156495;23;20089;-89
2021/01/16 04:49:20;;;;;;;13.15;3.28;;;8.60;99.90;;;;;;6156376;23;20028;-90
2021/01/16 04:51:48;;;;;;;14.93;2.22;;;8.60;99.90;;;;;;6156803;23;20017;-90
2021/01/16 04:54:17;;;;;;;15.80;2.10;;;8.60;99.90;;;;;;6156078;23;20020;-90
2021/01/16 04:56:46;;;;;;;15.45;2.47;;;8.60;99.90;;;;;;6155788;23;20022;-90
2021/01/16 04:59:13;;;;;;;17.65;1.98;;;8.60;99.90;;;;;;6155832;23;20041;-89
2021/01/16 05:01:40;;;;;;;14.00;1.73;;;8.70;99.90;;;;;;6156141;23;20044;-89
2021/01/16 05:04:08;;;;;;;12.63;1.83;;;8.70;99.90;;;;;;6156102;23;20105;-89
2021/01/16 05:06:39;;;;;;;22.93;2.20;;;8.70;99.90;;;;;;6156394;23;20374;-89
2021/01/16 05:09:06;;;;;;;17.52;2.30;;;8.80;99.90;;;;;;6156088;23;20104;-89
2021/01/16 05:11:42;;;;;;;13.85;2.50;;;8.80;99.90;;;;;;6153989;23;20472;-87
2021/01/16 05:14:17;;;;;;;20.13;2.45;;;8.80;99.90;;;;;;6154063;23;20025;-87
2021/01/16 05:16:52;;;;;;;12.27;2.00;;;8.80;99.90;;;;;;6155116;23;20026;-87
2021/01/16 05:19:31;;;;;;;14.55;2.45;;;8.80;99.90;;;;;;6156791;23;20056;-89
2021/01/16 05:21:59;;;;;;;14.68;1.80;;;8.90;99.90;;;;;;6154511;23;20025;-89
2021/01/16 05:24:26;;;;;;;13.60;1.58;;;8.90;99.90;;;;;;6155078;23;20018;-89
2021/01/16 05:27:01;;;;;;;8.40;2.00;;;8.90;99.90;;;;;;6154967;23;20013;-90
2021/01/16 05:29:32;;;;;;;18.38;2.05;;;8.90;99.90;;;;;;6154821;23;20084;-89
2021/01/16 05:32:03;;;;;;;17.98;2.50;;;8.90;99.90;;;;;;6154842;23;20014;-89
2021/01/16 05:34:32;;;;;;;18.73;3.15;;;8.90;99.90;;;;;;6155104;23;20021;-89
2021/01/16 05:36:59;;;;;;;15.38;2.38;;;8.90;99.90;;;;;;6155410;23;20079;-89
2021/01/16 05:39:28;;;;;;;14.43;2.17;;;9.00;99.90;;;;;;6154892;23;20032;-90
2021/01/16 05:41:55;;;;;;;;;;;9.00;99.90;;;;;;6154997;23;20013;-89
2021/01/16 05:44:24;;;;;;;19.70;1.80;;;9.00;99.90;;;;;;6154928;23;19916;-90
2021/01/16 05:46:53;;;;;;;10.98;1.55;;;9.00;99.90;;;;;;6154961;23;20445;-89
2021/01/16 05:49:21;;;;;;;19.35;2.40;;;9.00;99.90;;;;;;6155127;23;20018;-89
2021/01/16 05:51:49;;;;;;;17.65;1.83;;;9.00;99.90;;;;;;6154983;23;20025;-89
2021/01/16 05:54:18;;;;;;;13.55;2.10;;;9.00;99.90;;;;;;6154746;23;20021;-90
2021/01/16 05:56:46;;;;;;;18.42;2.45;;;9.10;99.90;;;;;;6154749;23;20387;-89
2021/01/16 05:59:17;;;;;;;19.88;3.35;;;9.10;99.90;;;;;;6156073;23;20022;-90
2021/01/16 06:01:51;;;;;;;16.48;2.85;;;9.10;99.90;;;;;;6154939;23;20028;-90
2021/01/16 06:04:21;;;;;;;16.77;2.92;;;9.10;99.90;;;;;;6160668;23;20017;-90
2021/01/16 06:06:48;;;;;;;18.42;2.55;;;9.20;99.90;;;;;;6165748;23;20021;-90
2021/01/16 06:09:19;;;;;;;19.38;2.63;;;9.20;99.90;;;;;;6156199;23;20023;-90
2021/01/16 06:11:48;;;;;;;24.35;4.35;;;9.20;99.90;;;;;;6154646;23;20018;-90
2021/01/16 06:14:16;;;;;;;17.50;3.30;;;9.20;99.90;;;;;;6154861;23;20015;-90
2021/01/16 06:16:46;;;;;;;16.50;3.83;;;9.20;99.90;;;;;;6154736;23;20434;-89
2021/01/16 06:19:24;;;;;;;20.52;3.63;;;9.20;99.90;;;;;;6154531;23;20014;-89
2021/01/16 06:21:52;;;;;;;17.33;3.35;;;9.30;99.90;;;;;;6154208;23;20442;-89
2021/01/16 06:24:21;;;;;;;21.65;3.67;;;9.30;99.90;;;;;;6154722;23;20028;-90
2021/01/16 06:26:56;;;;;;;22.08;3.38;;;9.30;99.90;;;;;;6155000;23;20017;-90
2021/01/16 06:29:28;;;;;;;25.52;4.07;;;9.30;99.90;;;;;;6154594;23;20048;-90
2021/01/16 06:32:09;;;;;;;20.52;3.28;;;9.30;99.90;;;;;;6154285;23;20450;-90
2021/01/16 06:34:41;;;;;;;23.30;3.20;;;9.30;99.90;;;;;;6154990;23;20017;-90
2021/01/16 06:37:16;;;;;;;21.27;4.05;;;9.30;99.90;;;;;;6155222;23;20072;-90
2021/01/16 06:39:45;;;;;;;23.13;3.55;;;9.30;99.90;;;;;;6154517;23;20515;-90
2021/01/16 06:42:13;;;;;;;25.17;2.92;;;9.30;99.90;;;;;;6154563;23;20021;-89
2021/01/16 06:44:41;;;;;;;20.83;3.90;;;9.30;99.90;;;;;;6154438;23;20028;-90
2021/01/16 06:47:07;;;;;;;17.70;3.03;;;9.30;99.90;;;;;;6154736;23;20021;-90
2021/01/16 06:49:35;;;;;;;19.80;2.67;;;9.30;99.90;;;;;;6154613;23;20456;-90
2021/01/16 06:52:04;;;;;;;19.75;3.20;;;9.30;99.90;;;;;;6154961;23;20040;-90
2021/01/16 06:54:33;;;;;;;21.20;2.55;;;9.30;99.90;;;;;;6153700;23;20020;-90
2021/01/16 06:57:13;;;;;;;;;;;9.30;99.90;;;;;;6154459;23;20026;-90
2021/01/16 06:59:44;;;;;;;20.50;2.10;;;9.20;99.90;;;;;;6154761;23;19923;-90
2021/01/16 07:02:34;;;;;;;18.50;2.22;;;9.30;99.90;;;;;;6153717;23;20018;-91
2021/01/16 07:05:17;;;;;;;18.70;2.08;;;9.20;99.90;;;;;;6153870;23;20021;-90
2021/01/16 07:07:47;;;;;;;19.17;2.08;;;9.20;99.90;;;;;;6153459;23;20017;-90
2021/01/16 07:10:22;;;;;;;13.88;2.10;;;9.20;99.90;;;;;;6154893;23;20053;-90
2021/01/16 07:12:52;;;;;;;14.10;1.45;;;9.20;99.90;;;;;;6153965;23;20057;-90
2021/01/16 07:15:20;;;;;;;10.88;1.83;;;9.20;99.90;;;;;;6154488;23;20326;-89
2021/01/16 07:17:48;;;;;;;8.73;2.20;;;9.20;99.90;;;;;;6154293;23;20018;-90
2021/01/16 07:20:15;;;;;;;12.77;1.85;;;9.20;99.90;;;;;;6158172;23;20017;-89
2021/01/16 07:22:44;;;;;;;10.05;1.60;;;9.20;99.90;;;;;;6170565;23;20027;-90
2021/01/16 07:25:12;;;;;;;;;;;9.20;99.90;;;;;;6160230;23;20020;-89
2021/01/16 07:27:40;;;;;;;11.00;1.73;;;9.20;99.90;;;;;;6155135;23;19928;-90
2021/01/16 07:30:12;;;;;;;12.80;1.27;;;9.20;99.90;;;;;;6153812;23;20370;-90
2021/01/16 07:32:40;;;;;;;7.43;1.10;;;9.20;99.90;;;;;;6154267;23;20590;-89
2021/01/16 07:35:09;;;;;;;9.18;1.13;;;9.20;99.90;;;;;;6154138;23;20018;-90
2021/01/16 07:37:35;;;;;;;6.07;1.40;;;9.20;99.90;;;;;;6154279;23;20036;-89
2021/01/16 07:40:23;;;;;;;7.28;1.10;;;9.20;99.90;;;;;;6154512;23;20036;-89
2021/01/16 07:43:13;;;;;;;7.95;0.82;;;9.30;99.90;;;;;;6153321;23;20025;-89
2021/01/16 07:45:49;;;;;;;6.72;0.95;;;9.30;99.90;;;;;;6041026;23;20518;-89
2021/01/16 07:48:20;;;;;;;4.68;1.05;;;9.20;99.90;;;;;;6041191;23;20119;-90
2021/01/16 07:50:52;;;;;;;5.28;0.85;;;9.30;99.90;;;;;;6041501;23;20080;-90
2021/01/16 07:53:29;;;;;;;6.45;0.95;;;9.30;99.90;;;;;;6041930;23;20304;-95
2021/01/16 07:56:18;;;;;;;5.43;1.00;;;9.30;99.90;;;;;;6041237;23;20051;-90
2021/01/16 07:59:12;;;;;;;5.53;1.23;;;9.30;99.90;;;;;;6064103;23;20023;-90
2021/01/16 08:01:57;;;;;;;4.15;0.73;;;9.40;99.90;;;;;;6038834;23;20050;-91
2021/01/16 08:04:42;;;;;;;3.00;0.68;;;9.40;99.90;;;;;;6039077;23;20043;-91
2021/01/16 08:07:09;;;;;;;6.53;0.82;;;9.40;99.90;;;;;;6039542;23;20107;-91
2021/01/16 08:09:54;;;;;;;4.50;0.98;;;9.40;99.90;;;;;;6039999;23;20030;-90
2021/01/16 08:12:27;;;;;;;5.47;1.00;;;9.40;99.90;;;;;;6038010;23;20026;-91
2021/01/16 08:14:58;;;;;;;7.65;1.08;;;9.40;99.90;;;;;;6038875;23;20026;-91
2021/01/16 08:17:26;;;;;;;6.82;1.13;;;9.40;99.90;;;;;;6039073;23;20027;-91
2021/01/16 08:20:08;;;;;;;8.73;1.30;;;9.50;99.90;;;;;;6039077;23;20019;-91
2021/01/16 08:22:51;;;;;;;8.65;1.70;;;9.50;99.90;;;;;;6087729;23;20286;-89
2021/01/16 08:25:23;;;;;;;9.20;1.48;;;9.50;99.90;;;;;;6152259;23;20045;-91
2021/01/16 08:27:56;;;;;;;7.05;1.40;;;9.50;99.90;;;;;;6152149;23;20064;-91
2021/01/16 08:30:25;;;;;;;7.35;1.40;;;9.50;99.90;;;;;;6152168;23;20048;-91
2021/01/16 08:33:12;;;;;;;5.47;0.88;;;9.60;99.90;;;;;;6152364;23;20097;-91
2021/01/16 08:35:48;;;;;;;6.45;1.00;;;9.60;99.90;;;;;;6154091;23;20060;-95
2021/01/16 08:38:17;;;;;;;6.90;1.00;;;9.60;99.90;;;;;;6166783;23;20033;-92
2021/01/16 08:41:04;;;;;;;7.25;1.08;;;9.60;99.90;;;;;;6155976;23;20029;-91
2021/01/16 08:43:49;;;;;;;6.53;1.00;;;9.70;99.90;;;;;;6152030;23;20383;-91
2021/01/16 08:46:33;;;;;;;4.30;0.93;;;9.70;99.90;;;;;;6151749;23;20426;-91
2021/01/16 08:49:17;;;;;;;8.98;1.10;;;9.70;99.90;;;;;;6151615;23;20461;-91
2021/01/16 08:51:51;;;;;;;6.22;1.10;;;9.80;99.90;;;;;;6152250;23;20057;-91
2021/01/16 08:54:19;;;;;;;4.40;0.90;;;9.80;99.90;;;;;;6151682;23;20022;-91
2021/01/16 08:56:48;;;;;;;7.88;0.98;;;9.80;99.90;;;;;;6151832;23;20461;-92
2021/01/16 08:59:20;;;;;;;4.47;0.70;;;9.80;99.90;;;;;;6153340;23;20020;-92
2021/01/16 09:02:01;;;;;;;5.10;0.98;;;9.90;99.90;;;;;;6155592;23;20290;-93
2021/01/16 09:04:44;;;;;;;6.53;1.10;;;9.90;99.90;;;;;;6153487;23;20025;-93
2021/01/16 09:07:22;;;;;;;5.03;1.13;;;9.90;99.90;;;;;;6155748;23;20039;-92
2021/01/16 09:10:10;;;;;;;12.57;1.77;;;10.00;99.90;;;;;;6154346;23;20025;-93
2021/01/16 09:12:40;;;;;;;11.48;2.00;;;10.00;99.90;;;;;;6155066;23;20092;-93
2021/01/16 09:15:20;;;;;;;8.43;1.50;;;10.00;99.90;;;;;;6153081;23;20026;-93
2021/01/16 09:18:13;;;;;;;9.25;1.52;;;10.00;99.90;;;;;;6153590;23;20068;-93
2021/01/16 09:20:41;;;;;;;11.40;1.58;;;10.10;99.90;;;;;;6153452;23;20025;-92
2021/01/16 09:23:20;;;;;;;8.32;1.42;;;10.10;99.90;;;;;;6153720;23;20088;-94
2021/01/16 09:25:51;;;;;;;10.52;1.60;;;10.10;99.90;;;;;;6160041;23;20072;-93
2021/01/16 09:28:43;;;;;;;6.82;1.70;;;10.10;99.90;;;;;;6154235;23;20094;-95
2021/01/16 09:31:33;;;;;;;9.98;2.47;;;10.20;99.90;;;;;;6154150;23;20183;-95
2021/01/16 09:34:11;;;;;;;5.93;1.55;;;10.20;99.90;;;;;;6152890;23;20085;-91
2021/01/16 09:36:56;;;;;;;6.75;1.20;;;10.20;99.90;;;;;;6153956;23;20017;-95
2021/01/16 09:39:33;;;;;;;5.82;1.30;;;10.30;99.90;;;;;;6152896;23;20026;-94
2021/01/16 09:42:03;;;;;;;7.18;1.40;;;10.30;99.90;;;;;;6153554;23;20093;-94
2021/01/16 09:44:39;;;;;;;6.85;2.03;;;10.30;99.90;;;;;;6152942;23;20022;-94
2021/01/16 09:47:29;;;;;;;5.40;1.02;;;10.40;99.90;;;;;;6153856;23;20076;-95
2021/01/16 09:50:11;;;;;;;;;;;;;;;;;;;;;
2021/01/16 09:52:56;;;;;;;4.10;1.40;;;10.50;99.90;;;;;;6168806;23;20032;-95
2021/01/16 09:55:45;;;;;;;4.55;1.20;;;10.50;99.90;;;;;;6157390;23;20021;-93
2021/01/16 09:58:38;;;;;;;4.82;1.13;;;10.50;99.90;;;;;;6127728;23;20018;-94
2021/01/16 10:01:18;;;;;;;5.43;1.70;;;10.50;99.90;;;;;;6128274;23;20021;-94
2021/01/16 10:04:10;;;;;;;3.80;1.40;;;10.60;99.90;;;;;;6129371;23;20022;-94
2021/01/16 10:06:43;;;;;;;5.32;1.65;;;10.60;99.90;;;;;;6127713;23;20088;-94
2021/01/16 10:09:33;;;;;;;4.50;1.30;;;10.60;99.90;;;;;;6128553;23;20030;-94
2021/01/16 10:12:21;;;;;;;7.13;1.85;;;10.70;99.90;;;;;;6128434;23;20372;-93
2021/01/16 10:15:14;;;;;;;12.13;1.30;;;10.70;99.90;;;;;;6133243;23;20057;-93
2021/01/16 10:17:51;;;;;;;10.80;1.50;;;10.70;99.90;;;;;;6124705;23;20043;-92
2021/01/16 10:20:36;;;;;;;12.30;1.73;;;10.80;99.90;;;;;;6120500;23;20022;-93
2021/01/16 10:23:17;;;;;;;;;;;;;;;;;;;;;
2021/01/16 10:25:53;;;;;;;38.13;2.20;;;10.80;99.90;;;;;;6151810;23;20022;-93
2021/01/16 10:28:35;;;;;;;73.18;3.25;;;10.90;99.90;;;;;;6128330;23;20037;-92
2021/01/16 10:31:17;;;;;;;25.70;2.55;;;10.90;99.90;;;;;;6127723;23;20018;-92
2021/01/16 10:33:46;;;;;;;41.85;2.70;;;10.90;99.90;;;;;;6127160;23;20122;-93
2021/01/16 10:36:17;;;;;;;14.98;1.65;;;11.00;99.90;;;;;;6127819;23;20040;-93
2021/01/16 10:39:00;;;;;;;6.40;1.00;;;11.00;99.90;;;;;;6126897;23;20359;-92
2021/01/16 10:41:31;;;;;;;6.10;1.25;;;11.00;99.90;;;;;;6128180;23;20076;-92
2021/01/16 10:44:19;;;;;;;2.72;0.77;;;11.10;99.90;;;;;;6125313;23;20439;-92
2021/01/16 10:46:53;;;;;;;4.57;1.30;;;11.10;99.90;;;;;;6127026;23;20017;-93
2021/01/16 10:49:25;;;;;;;3.67;0.70;;;11.10;99.90;;;;;;6128221;23;20523;-93
2021/01/16 10:51:58;;;;;;;1.52;0.75;;;11.20;99.90;;;;;;6129032;23;20021;-91
2021/01/16 10:54:26;;;;;;;2.28;1.13;;;11.20;99.90;;;;;;6125801;23;20179;-90
2021/01/16 10:57:13;;;;;;;3.90;0.80;;;11.20;99.90;;;;;;6144121;23;20124;-90
2021/01/16 10:59:57;;;;;;;3.00;0.70;;;11.30;99.90;;;;;;6151027;23;20020;-91
2021/01/16 11:02:36;;;;;;;1.40;0.60;;;11.30;99.90;;;;;;6152213;23;20047;-90
2021/01/16 11:05:15;;;;;;;3.55;0.77;;;11.30;99.90;;;;;;6154268;23;20021;-90
2021/01/16 11:07:43;;;;;;;2.80;0.85;;;11.40;99.90;;;;;;6164361;23;20021;-90
2021/01/16 11:10:10;;;;;;;2.58;0.80;;;11.40;99.90;;;;;;6154697;23;20469;-91
2021/01/16 11:12:39;;;;;;;2.33;0.98;;;11.40;99.90;;;;;;6151449;23;20097;-91
2021/01/16 11:15:25;;;;;;;4.00;0.75;;;11.40;99.90;;;;;;6150999;23;20017;-91
2021/01/16 11:17:53;;;;;;;7.72;1.45;;;11.40;99.90;;;;;;6150516;23;20052;-90
2021/01/16 11:20:23;;;;;;;8.13;2.97;;;11.40;99.90;;;;;;6151202;23;20037;-91
2021/01/16 11:23:21;;;;;;;12.07;3.08;;;11.50;99.90;;;;;;6151348;23;20017;-92
2021/01/16 11:25:50;;;;;;;11.75;3.70;;;11.50;99.90;;;;;;6151322;23;20017;-91
2021/01/16 11:28:25;;;;;;;9.05;2.10;;;11.50;99.90;;;;;;6150348;23;20018;-91
2021/01/16 11:31:23;;;;;;;8.52;4.13;;;11.50;99.90;;;;;;6151972;23;20503;-91
2021/01/16 11:34:11;;;;;;;15.68;3.67;;;11.60;99.90;;;;;;6151038;23;20018;-91
2021/01/16 11:37:04;;;;;;;18.98;2.92;;;11.60;99.90;;;;;;6132319;23;20032;-89
2021/01/16 11:39:53;;;;;;;20.27;4.50;;;11.60;99.90;;;;;;6150916;23;20029;-90
2021/01/16 11:42:21;;;;;;;20.05;3.03;;;11.60;99.90;;;;;;6149975;23;20509;-91
2021/01/16 11:45:03;;;;;;;13.07;2.10;;;11.60;99.90;;;;;;6151649;23;20018;-91
2021/01/16 11:47:30;;;;;;;10.52;2.35;;;11.60;99.90;;;;;;6157862;23;20017;-91
2021/01/16 11:49:59;;;;;;;15.13;2.33;;;11.60;99.90;;;;;;6153694;23;20041;-92
2021/01/16 11:52:33;;;;;;;13.73;1.70;;;11.60;99.90;;;;;;6152758;23;20427;-91
2021/01/16 11:55:07;;;;;;;17.00;3.03;;;11.60;99.90;;;;;;6153725;23;20375;-91
2021/01/16 11:57:34;;;;;;;10.98;1.55;;;11.60;99.90;;;;;;6153617;23;20022;-91
2021/01/16 12:00:02;;;;;;;7.60;1.65;;;11.60;99.90;;;;;;6153718;23;20393;-91
2021/01/16 12:02:32;;;;;;;7.97;1.67;;;11.70;99.90;;;;;;6153563;23;20028;-92
2021/01/16 12:04:59;;;;;;;11.48;2.13;;;11.70;99.90;;;;;;6153621;23;20037;-92
2021/01/16 12:07:29;;;;;;;9.35;2.20;;;11.70;99.90;;;;;;6154244;23;20024;-92
2021/01/16 12:09:57;;;;;;;6.60;1.70;;;11.80;99.90;;;;;;6153810;23;20017;-91
2021/01/16 12:12:32;;;;;;;7.40;2.17;;;11.80;99.90;;;;;;6153902;23;20018;-93
2021/01/16 12:15:02;;;;;;;7.57;2.80;;;11.80;99.90;;;;;;6153971;23;20537;-92
2021/01/16 12:17:30;;;;;;;7.07;2.92;;;11.90;99.90;;;;;;6153994;23;20020;-92
2021/01/16 12:20:05;;;;;;;5.85;2.05;;;11.90;99.90;;;;;;6157468;23;20374;-92
2021/01/16 12:22:34;;;;;;;5.30;1.58;;;11.90;99.90;;;;;;6156365;23;20013;-85
2021/01/16 12:28:32;;;;;;;5.72;1.27;;;11.90;99.90;;;;;;6243872;23;20280;-93
2021/01/16 12:31:02;;;;;;;7.43;1.52;;;11.90;99.90;;;;;;6221148;23;20071;-91
2021/01/16 12:33:33;;;;;;;7.55;1.23;;;11.90;99.90;;;;;;6245285;23;20059;-90
2021/01/16 12:36:10;;;;;;;4.55;1.17;;;11.90;99.90;;;;;;6250425;22;20027;-90
2021/01/16 12:38:37;;;;;;;6.22;1.42;;;11.90;99.90;;;;;;6248767;22;20012;-90
2021/01/16 12:41:04;;;;;;;3.05;1.50;;;11.90;99.90;;;;;;6248782;22;20457;-90
2021/01/16 12:43:30;;;;;;;3.53;1.15;;;11.90;99.90;;;;;;6248522;22;20501;-91
2021/01/16 12:46:07;;;;;;;3.33;0.95;;;12.00;99.90;;;;;;6248308;22;20324;-90
2021/01/16 12:48:35;;;;;;;1.83;0.90;;;12.00;99.90;;;;;;6247681;22;20098;-91
2021/01/16 12:51:04;;;;;;;2.08;1.00;;;12.00;99.90;;;;;;6248147;22;20016;-86
2021/01/16 12:53:31;;;;;;;2.67;1.65;;;12.00;99.90;;;;;;6246808;22;20051;-90
2021/01/16 12:55:58;;;;;;;2.05;1.42;;;12.00;99.90;;;;;;6248841;22;20019;-90
2021/01/16 12:58:25;;;;;;;3.55;1.60;;;12.00;99.90;;;;;;6236223;22;20338;-91
2021/01/16 13:00:52;;;;;;;5.22;1.33;;;12.10;99.90;;;;;;6245939;22;20023;-91
2021/01/16 13:03:20;;;;;;;3.53;1.40;;;12.10;99.90;;;;;;6248940;22;20518;-91
2021/01/16 13:05:47;;;;;;;4.10;1.25;;;12.10;99.90;;;;;;6248874;22;20022;-92
2021/01/16 13:08:33;;;;;;;5.13;1.67;;;12.10;99.90;;;;;;6251499;22;20015;-95
2021/01/16 13:11:01;;;;;;;2.97;1.45;;;12.10;99.90;;;;;;6251312;22;20012;-91
2021/01/16 13:13:31;;;;;;;3.85;1.48;;;12.10;99.90;;;;;;6249460;22;20019;-92
2021/01/16 13:16:00;;;;;;;7.03;2.20;;;12.10;99.90;;;;;;6248352;22;20012;-92
2021/01/16 13:18:32;;;;;;;6.15;3.03;;;12.10;99.90;;;;;;6248810;22;20046;-92
2021/01/16 13:21:01;;;;;;;7.45;2.60;;;12.10;99.90;;;;;;6248617;22;20038;-92
2021/01/16 13:23:40;;;;;;;6.22;3.35;;;12.10;99.90;;;;;;6248396;22;20043;-92
2021/01/16 13:26:09;;;;;;;8.27;3.42;;;12.10;99.90;;;;;;6248522;22;20022;-91